Time;durP1;ratioP1;P1;durP2;ratioP2;P2;SDS_P1;SDS_P2;PMS_P1;PMS_P2;Temp;Humidity;BMP_temperature;BMP_pressure;BME280_temperature;BME280_humidity;BME280_pressure;Samples;Min_cycle;Max_cycle;Signal;HPM_P1;HPM_P2
2021/09/07 00:01:06;;;;;;;10.52;6.32;;;21.30;56.50;;;;;;5038313;28;20026;-76
2021/09/07 00:03:31;;;;;;;10.60;6.47;;;21.30;56.70;;;;;;5037998;28;20100;-76
2021/09/07 00:05:57;;;;;;;9.65;6.53;;;21.20;57.50;;;;;;5037921;28;20540;-76
2021/09/07 00:08:23;;;;;;;8.57;6.00;;;21.20;57.10;;;;;;5038280;28;20051;-76
2021/09/07 00:10:49;;;;;;;9.05;6.53;;;21.20;56.90;;;;;;5030337;28;20025;-76
2021/09/07 00:13:15;;;;;;;8.77;6.15;;;21.20;57.10;;;;;;5031370;28;20021;-77
2021/09/07 00:15:41;;;;;;;11.25;6.40;;;21.10;56.80;;;;;;5037909;28;20025;-76
2021/09/07 00:18:07;;;;;;;10.25;6.55;;;21.10;56.80;;;;;;5032952;28;20024;-76
2021/09/07 00:20:32;;;;;;;8.05;5.88;;;21.00;56.40;;;;;;5037730;28;20021;-76
2021/09/07 00:22:58;;;;;;;8.48;5.80;;;20.90;56.30;;;;;;5037784;28;20018;-76
2021/09/07 00:25:24;;;;;;;9.38;6.63;;;20.90;56.60;;;;;;5037706;28;20036;-77
2021/09/07 00:27:50;;;;;;;9.35;6.25;;;20.90;56.40;;;;;;5037589;28;20476;-77
2021/09/07 00:30:16;;;;;;;9.00;5.95;;;20.90;56.10;;;;;;5037903;28;20037;-77
2021/09/07 00:32:42;;;;;;;9.65;5.90;;;20.80;56.40;;;;;;5037422;28;20100;-76
2021/09/07 00:35:11;;;;;;;7.97;6.13;;;20.80;56.90;;;;;;5037443;28;20121;-76
2021/09/07 00:37:38;;;;;;;8.38;5.80;;;20.80;57.40;;;;;;5037470;28;20021;-76
2021/09/07 00:40:05;;;;;;;9.85;6.65;;;20.70;57.60;;;;;;5037330;28;20034;-76
2021/09/07 00:42:34;;;;;;;9.80;6.40;;;20.70;57.50;;;;;;5035999;28;20024;-77
2021/09/07 00:45:01;;;;;;;11.88;6.35;;;20.70;57.70;;;;;;5036247;28;20163;-77
2021/09/07 00:47:27;;;;;;;8.07;5.88;;;20.60;57.80;;;;;;5037265;28;20142;-76
2021/09/07 00:49:52;;;;;;;9.35;6.20;;;20.60;57.80;;;;;;5035976;28;20449;-76
2021/09/07 00:52:19;;;;;;;8.57;6.10;;;20.50;57.70;;;;;;5035951;28;20029;-76
2021/09/07 00:54:46;;;;;;;9.43;6.50;;;20.50;57.80;;;;;;5037206;28;20060;-77
2021/09/07 00:57:13;;;;;;;8.55;6.80;;;20.50;57.90;;;;;;5037187;28;20025;-76
2021/09/07 00:59:39;;;;;;;8.90;6.47;;;20.40;57.60;;;;;;5037454;28;20101;-77
2021/09/07 01:02:06;;;;;;;9.57;6.65;;;20.40;57.60;;;;;;5037076;28;20045;-76
2021/09/07 01:04:33;;;;;;;9.27;6.53;;;20.30;57.60;;;;;;5037338;28;20112;-76
2021/09/07 01:07:03;;;;;;;9.23;6.30;;;20.30;57.10;;;;;;5040017;28;20446;-76
2021/09/07 01:09:29;;;;;;;8.75;6.20;;;20.30;57.10;;;;;;5041560;28;20116;-77
2021/09/07 01:11:55;;;;;;;8.27;6.03;;;20.20;57.00;;;;;;5026845;28;20058;-77
2021/09/07 01:14:32;;;;;;;9.93;6.22;;;20.20;57.40;;;;;;5041324;28;20137;-76
2021/09/07 01:16:59;;;;;;;9.82;6.80;;;20.20;57.80;;;;;;5041403;28;20073;-76
2021/09/07 01:19:28;;;;;;;9.15;6.22;;;20.20;57.90;;;;;;5036220;28;20388;-76
2021/09/07 01:21:54;;;;;;;10.80;6.40;;;20.10;57.80;;;;;;5041156;28;20032;-76
2021/09/07 01:24:25;;;;;;;10.32;6.63;;;20.10;57.60;;;;;;5041030;28;20025;-76
2021/09/07 01:26:51;;;;;;;10.60;5.80;;;20.00;57.50;;;;;;5040949;28;20014;-76
2021/09/07 01:29:18;;;;;;;8.98;6.13;;;20.00;57.80;;;;;;5041054;28;20089;-77
2021/09/07 01:31:44;;;;;;;10.07;6.47;;;20.00;58.10;;;;;;5040727;28;20018;-77
2021/09/07 01:34:17;;;;;;;10.77;6.53;;;20.00;58.20;;;;;;5040460;28;20132;-76
2021/09/07 01:36:43;;;;;;;9.30;6.35;;;19.90;58.20;;;;;;5028298;28;20026;-77
2021/09/07 01:39:09;;;;;;;10.27;6.85;;;19.90;58.30;;;;;;5040801;28;20074;-76
2021/09/07 01:41:35;;;;;;;9.57;6.60;;;19.90;58.60;;;;;;5040843;28;20071;-77
2021/09/07 01:44:01;;;;;;;9.73;6.72;;;19.80;58.60;;;;;;5040675;28;20388;-76
2021/09/07 01:46:27;;;;;;;11.75;6.57;;;19.80;58.40;;;;;;5040961;28;20033;-77
2021/09/07 01:48:53;;;;;;;11.05;6.47;;;19.70;58.40;;;;;;5040354;28;20035;-76
2021/09/07 01:51:19;;;;;;;9.85;6.40;;;19.70;58.50;;;;;;5040774;28;20531;-77
2021/09/07 01:53:45;;;;;;;9.07;6.28;;;19.70;58.70;;;;;;5040348;28;20374;-77
2021/09/07 01:56:10;;;;;;;8.80;6.50;;;19.70;58.70;;;;;;5040690;28;20079;-77
2021/09/07 01:58:36;;;;;;;9.85;6.38;;;19.60;58.60;;;;;;5040236;28;20022;-77
2021/09/07 02:01:02;;;;;;;8.77;6.05;;;19.60;58.80;;;;;;5040650;28;20036;-76
2021/09/07 02:03:28;;;;;;;9.55;6.20;;;19.60;58.60;;;;;;5040309;28;20033;-76
2021/09/07 02:05:54;;;;;;;9.48;6.25;;;19.50;58.70;;;;;;5038772;28;20104;-76
2021/09/07 02:08:19;;;;;;;8.52;6.13;;;19.50;58.90;;;;;;5040260;28;20560;-77
2021/09/07 02:10:45;;;;;;;9.30;6.57;;;19.50;58.70;;;;;;5034103;28;20022;-76
2021/09/07 02:13:11;;;;;;;11.02;6.85;;;19.40;58.70;;;;;;5032926;28;20063;-76
2021/09/07 02:15:37;;;;;;;10.32;6.32;;;19.40;58.70;;;;;;5038875;28;20116;-76
2021/09/07 02:18:02;;;;;;;9.00;6.30;;;19.40;58.80;;;;;;5035470;28;20022;-76
2021/09/07 02:20:28;;;;;;;9.93;6.10;;;19.30;58.70;;;;;;5039461;28;20093;-76
2021/09/07 02:22:54;;;;;;;10.02;6.70;;;19.30;58.60;;;;;;5040188;28;20448;-76
2021/09/07 02:25:20;;;;;;;9.20;6.72;;;19.30;58.70;;;;;;5039757;28;20029;-76
2021/09/07 02:27:45;;;;;;;9.50;6.97;;;19.30;58.60;;;;;;5039936;28;20030;-76
2021/09/07 02:30:12;;;;;;;10.32;6.72;;;19.20;58.60;;;;;;5038826;28;20025;-77
2021/09/07 02:32:38;;;;;;;10.52;6.75;;;19.20;58.50;;;;;;5039868;28;20483;-77
2021/09/07 02:35:05;;;;;;;9.48;6.63;;;19.10;58.90;;;;;;5026451;28;20105;-78
2021/09/07 02:37:31;;;;;;;8.45;5.97;;;19.10;58.60;;;;;;5038645;28;20026;-77
2021/09/07 02:39:57;;;;;;;10.85;7.35;;;19.10;58.80;;;;;;5039657;28;20030;-77
2021/09/07 02:42:22;;;;;;;10.52;7.18;;;19.00;58.80;;;;;;5038175;28;20050;-77
2021/09/07 02:44:49;;;;;;;10.13;6.72;;;19.10;59.10;;;;;;5038394;28;20021;-77
2021/09/07 02:47:14;;;;;;;9.32;6.82;;;19.00;59.30;;;;;;5039438;28;20064;-76
2021/09/07 02:49:40;;;;;;;10.50;6.45;;;19.00;59.70;;;;;;5039491;28;20026;-76
2021/09/07 02:52:06;;;;;;;9.88;6.93;;;18.90;59.60;;;;;;5039380;28;20032;-77
2021/09/07 02:54:32;;;;;;;9.88;6.90;;;18.90;59.50;;;;;;5038038;28;20397;-76
2021/09/07 02:56:58;;;;;;;11.82;6.88;;;18.90;59.40;;;;;;5039344;28;20036;-77
2021/09/07 02:59:23;;;;;;;9.80;6.85;;;18.80;59.20;;;;;;5039310;28;20022;-77
2021/09/07 03:01:49;;;;;;;9.52;6.90;;;18.80;58.90;;;;;;5039335;28;20220;-77
2021/09/07 03:04:15;;;;;;;11.32;6.40;;;18.80;59.30;;;;;;5039070;28;20026;-77
2021/09/07 03:06:41;;;;;;;11.63;6.45;;;18.70;59.30;;;;;;5037861;28;20068;-77
2021/09/07 03:09:06;;;;;;;9.27;6.72;;;18.70;59.40;;;;;;5038093;28;20022;-77
2021/09/07 03:11:32;;;;;;;9.63;6.65;;;18.70;59.50;;;;;;5026587;28;20033;-77
2021/09/07 03:13:58;;;;;;;8.43;6.35;;;18.70;59.40;;;;;;5038318;28;20522;-77
2021/09/07 03:16:24;;;;;;;10.93;7.00;;;18.60;59.40;;;;;;5039086;28;20030;-77
2021/09/07 03:18:50;;;;;;;12.20;7.22;;;18.60;59.70;;;;;;5034040;28;20488;-77
2021/09/07 03:21:16;;;;;;;9.70;6.90;;;18.60;59.90;;;;;;5039078;28;20108;-77
2021/09/07 03:23:42;;;;;;;9.38;6.70;;;18.60;59.30;;;;;;5037428;28;20053;-77
2021/09/07 03:26:09;;;;;;;10.57;6.65;;;18.50;59.10;;;;;;5038897;28;20477;-76
2021/09/07 03:28:35;;;;;;;11.80;6.65;;;18.50;59.50;;;;;;5025140;28;20036;-76
2021/09/07 03:31:01;;;;;;;10.38;6.68;;;18.50;59.50;;;;;;5038762;28;20449;-77
2021/09/07 03:33:27;;;;;;;10.07;6.82;;;18.40;59.40;;;;;;5038418;28;20050;-77
2021/09/07 03:35:52;;;;;;;9.40;7.25;;;18.40;60.00;;;;;;5038580;28;20033;-77
2021/09/07 03:38:18;;;;;;;10.27;7.18;;;18.30;59.70;;;;;;5038935;28;20017;-77
2021/09/07 03:40:45;;;;;;;10.07;6.55;;;18.30;59.80;;;;;;5038340;28;20021;-77
2021/09/07 03:43:10;;;;;;;8.75;6.60;;;18.30;59.90;;;;;;5038609;28;20018;-77
2021/09/07 03:45:36;;;;;;;10.43;6.88;;;18.20;59.80;;;;;;5038407;28;20111;-77
2021/09/07 03:48:02;;;;;;;9.77;6.95;;;18.30;60.00;;;;;;5038845;28;20037;-77
2021/09/07 03:50:28;;;;;;;11.13;7.10;;;18.20;60.00;;;;;;5038311;28;20026;-77
2021/09/07 03:52:54;;;;;;;11.50;7.57;;;18.20;60.30;;;;;;5037027;28;20021;-76
2021/09/07 03:55:20;;;;;;;10.65;7.13;;;18.10;60.30;;;;;;5038235;28;20458;-77
2021/09/07 03:57:45;;;;;;;10.18;7.07;;;18.10;60.40;;;;;;5037204;28;20021;-77
2021/09/07 04:00:12;;;;;;;9.63;6.38;;;18.10;60.50;;;;;;5038286;28;20036;-77
2021/09/07 04:02:38;;;;;;;11.65;6.97;;;18.00;60.30;;;;;;5036857;28;20028;-77
2021/09/07 04:05:04;;;;;;;11.20;7.22;;;18.10;60.10;;;;;;5036470;28;20030;-77
2021/09/07 04:07:30;;;;;;;12.38;6.93;;;18.00;59.90;;;;;;5038472;28;20025;-77
2021/09/07 04:09:56;;;;;;;11.75;7.43;;;17.90;59.60;;;;;;5036856;28;20035;-78
2021/09/07 04:12:22;;;;;;;11.65;7.40;;;17.90;59.70;;;;;;5024712;28;20458;-77
2021/09/07 04:14:47;;;;;;;11.30;6.95;;;17.90;59.70;;;;;;5036993;28;20435;-77
2021/09/07 04:17:13;;;;;;;13.10;7.60;;;17.90;59.80;;;;;;5037803;28;20076;-77
2021/09/07 04:19:39;;;;;;;11.88;7.28;;;17.80;60.00;;;;;;5033189;28;20101;-77
2021/09/07 04:22:05;;;;;;;10.23;7.15;;;17.80;60.10;;;;;;5037686;28;20040;-77
2021/09/07 04:24:31;;;;;;;9.30;6.90;;;17.80;60.20;;;;;;5037638;28;20100;-77
2021/09/07 04:26:58;;;;;;;12.13;7.30;;;17.80;60.00;;;;;;5024861;28;20031;-77
2021/09/07 04:29:24;;;;;;;11.75;7.38;;;17.70;60.30;;;;;;5037579;28;20033;-76
2021/09/07 04:31:50;;;;;;;10.55;6.95;;;17.70;60.40;;;;;;5038059;28;20025;-77
2021/09/07 04:34:15;;;;;;;11.05;7.63;;;17.70;60.50;;;;;;5036910;28;20068;-77
2021/09/07 04:36:41;;;;;;;10.32;7.10;;;17.70;60.60;;;;;;5037787;28;20058;-76
2021/09/07 04:39:07;;;;;;;10.88;6.78;;;17.60;61.40;;;;;;5036857;28;20028;-76
2021/09/07 04:41:33;;;;;;;11.73;6.95;;;17.60;60.80;;;;;;5037704;28;20472;-76
2021/09/07 04:43:59;;;;;;;11.70;6.85;;;17.60;60.30;;;;;;5037517;28;20032;-77
2021/09/07 04:46:25;;;;;;;11.35;7.55;;;17.60;60.60;;;;;;5037695;28;20025;-76
2021/09/07 04:48:54;;;;;;;10.63;6.65;;;17.50;60.80;;;;;;5037277;28;20530;-77
2021/09/07 04:51:21;;;;;;;11.95;6.85;;;17.50;61.20;;;;;;5036220;28;20514;-76
2021/09/07 04:53:47;;;;;;;11.45;7.60;;;17.50;61.10;;;;;;5037344;28;20022;-77
2021/09/07 04:56:12;;;;;;;11.43;7.40;;;17.40;60.80;;;;;;5037450;28;20464;-76
2021/09/07 04:58:38;;;;;;;12.77;8.00;;;17.40;61.10;;;;;;5036169;28;20018;-77
2021/09/07 05:01:05;;;;;;;10.25;6.97;;;17.40;61.00;;;;;;5036420;28;20029;-77
2021/09/07 05:03:31;;;;;;;11.50;7.00;;;17.30;60.60;;;;;;5037231;28;20035;-79
2021/09/07 05:05:57;;;;;;;11.63;7.80;;;17.30;60.70;;;;;;5019674;28;20112;-81
2021/09/07 05:08:23;;;;;;;11.73;8.35;;;17.30;60.70;;;;;;5036108;28;20080;-75
2021/09/07 05:10:49;;;;;;;10.18;7.28;;;17.30;61.00;;;;;;5029221;28;20488;-82
2021/09/07 05:13:15;;;;;;;14.35;8.50;;;17.20;61.00;;;;;;5029665;28;20025;-69
2021/09/07 05:15:41;;;;;;;14.63;9.32;;;17.20;63.90;;;;;;5037331;28;20025;-72
2021/09/07 05:18:07;;;;;;;13.35;8.85;;;17.20;66.00;;;;;;5032479;28;20560;-77
2021/09/07 05:20:33;;;;;;;13.52;8.30;;;17.20;66.20;;;;;;5037057;28;20025;-78
2021/09/07 05:22:59;;;;;;;12.20;8.68;;;17.20;64.00;;;;;;5036943;28;20041;-78
2021/09/07 05:25:26;;;;;;;13.18;8.15;;;17.20;63.10;;;;;;5037004;28;20029;-79
2021/09/07 05:27:52;;;;;;;10.95;7.78;;;17.10;62.60;;;;;;5037011;28;20038;-75
2021/09/07 05:30:18;;;;;;;11.50;7.13;;;17.10;62.20;;;;;;5037144;28;20041;-75
2021/09/07 05:32:44;;;;;;;10.65;6.88;;;17.10;61.70;;;;;;5036673;28;20424;-77
2021/09/07 05:35:10;;;;;;;12.82;7.07;;;17.10;61.80;;;;;;5036772;28;20085;-74
2021/09/07 05:37:39;;;;;;;12.10;7.53;;;17.00;61.40;;;;;;5036999;28;20014;-75
2021/09/07 05:40:11;;;;;;;11.45;7.82;;;17.00;61.10;;;;;;5036945;28;20084;-75
2021/09/07 05:42:41;;;;;;;12.20;7.10;;;17.00;61.30;;;;;;5036992;28;20021;-75
2021/09/07 05:45:08;;;;;;;10.30;7.18;;;17.00;61.30;;;;;;5036950;28;20038;-76
2021/09/07 05:47:34;;;;;;;11.98;7.68;;;17.00;61.40;;;;;;5036729;28;20022;-75
2021/09/07 05:50:00;;;;;;;11.23;7.38;;;17.00;61.50;;;;;;5037149;28;20537;-75
2021/09/07 05:52:26;;;;;;;11.02;7.38;;;16.90;61.30;;;;;;5040596;28;20033;-71
2021/09/07 05:54:51;;;;;;;11.85;7.72;;;16.90;61.20;;;;;;5040487;28;20040;-86
2021/09/07 05:57:17;;;;;;;10.10;7.22;;;16.90;61.40;;;;;;5039210;28;20022;-74
2021/09/07 05:59:43;;;;;;;12.45;8.10;;;16.90;60.90;;;;;;5039767;28;20049;-75
2021/09/07 06:02:09;;;;;;;10.77;7.78;;;16.90;60.90;;;;;;5038424;28;20017;-75
2021/09/07 06:04:34;;;;;;;12.82;7.93;;;16.90;60.80;;;;;;5039676;28;20033;-75
2021/09/07 06:07:00;;;;;;;13.43;8.23;;;16.90;61.00;;;;;;5040278;28;20036;-75
2021/09/07 06:09:26;;;;;;;13.48;8.27;;;16.90;61.40;;;;;;5040476;28;20159;-75
2021/09/07 06:11:52;;;;;;;13.80;7.55;;;16.90;61.70;;;;;;5025476;28;20041;-75
2021/09/07 06:14:18;;;;;;;13.30;8.00;;;16.90;61.30;;;;;;5040013;28;20025;-75
2021/09/07 06:16:43;;;;;;;12.65;8.18;;;16.90;61.50;;;;;;5040449;28;20089;-74
2021/09/07 06:19:09;;;;;;;12.15;7.82;;;16.90;61.30;;;;;;5035190;28;20057;-75
2021/09/07 06:21:35;;;;;;;12.23;7.72;;;16.90;61.50;;;;;;5040128;28;20021;-75
2021/09/07 06:24:01;;;;;;;11.73;8.20;;;16.90;60.80;;;;;;5039756;28;20079;-75
2021/09/07 06:26:27;;;;;;;14.23;8.88;;;16.90;60.80;;;;;;5038547;28;20101;-75
2021/09/07 06:28:53;;;;;;;13.88;9.05;;;16.90;61.00;;;;;;5040057;28;20033;-75
2021/09/07 06:31:19;;;;;;;13.98;9.15;;;16.90;60.80;;;;;;5039180;28;20036;-75
2021/09/07 06:33:44;;;;;;;14.13;8.93;;;17.00;61.00;;;;;;5037840;28;20512;-75
2021/09/07 06:36:10;;;;;;;14.98;9.50;;;16.90;60.80;;;;;;5039646;28;20140;-75
2021/09/07 06:38:36;;;;;;;15.43;8.77;;;16.90;61.00;;;;;;5038412;28;20060;-75
2021/09/07 06:41:06;;;;;;;14.57;8.45;;;17.00;61.10;;;;;;5039629;28;20038;-75
2021/09/07 06:43:33;;;;;;;11.77;7.90;;;17.00;60.90;;;;;;5039976;28;20014;-75
2021/09/07 06:45:58;;;;;;;15.65;9.27;;;17.00;60.70;;;;;;5039555;28;20053;-75
2021/09/07 06:48:24;;;;;;;13.93;8.65;;;17.00;60.90;;;;;;5039614;28;20064;-75
2021/09/07 06:50:50;;;;;;;12.57;7.82;;;17.00;60.90;;;;;;5039465;28;20087;-75
2021/09/07 06:53:16;;;;;;;15.35;8.63;;;17.00;61.00;;;;;;5038139;28;20052;-75
2021/09/07 06:55:41;;;;;;;12.50;7.95;;;17.00;60.90;;;;;;5037843;28;20034;-75
2021/09/07 06:58:07;;;;;;;13.50;8.38;;;17.10;62.00;;;;;;5039384;28;20609;-75
2021/09/07 07:00:33;;;;;;;13.00;7.65;;;17.10;61.40;;;;;;5039225;28;20037;-75
2021/09/07 07:02:59;;;;;;;15.23;7.88;;;17.10;61.30;;;;;;5038476;28;20028;-75
2021/09/07 07:05:25;;;;;;;14.52;9.38;;;17.20;61.80;;;;;;5037592;28;20076;-75
2021/09/07 07:07:51;;;;;;;13.50;8.52;;;17.20;63.90;;;;;;5037968;28;20484;-75
2021/09/07 07:10:17;;;;;;;14.77;8.85;;;17.30;63.50;;;;;;5036601;28;20462;-75
2021/09/07 07:12:43;;;;;;;12.20;8.38;;;17.30;64.40;;;;;;5028506;28;20053;-75
2021/09/07 07:15:09;;;;;;;12.18;7.95;;;17.40;64.20;;;;;;5038913;28;20033;-75
2021/09/07 07:17:35;;;;;;;14.05;8.45;;;17.50;64.40;;;;;;5038298;28;20021;-75
2021/09/07 07:20:01;;;;;;;13.07;8.50;;;17.50;64.20;;;;;;5034969;28;20040;-75
2021/09/07 07:22:27;;;;;;;16.05;8.75;;;17.60;64.80;;;;;;5038978;28;20486;-75
2021/09/07 07:24:53;;;;;;;16.83;9.07;;;17.60;66.70;;;;;;5037388;28;20033;-75
2021/09/07 07:27:19;;;;;;;21.92;9.18;;;17.70;66.60;;;;;;5037862;28;20029;-75
2021/09/07 07:29:45;;;;;;;15.55;8.70;;;17.80;67.10;;;;;;5038941;28;20055;-75
2021/09/07 07:32:11;;;;;;;16.13;8.48;;;17.90;67.00;;;;;;5038636;28;20036;-75
2021/09/07 07:34:37;;;;;;;12.85;7.78;;;18.00;66.60;;;;;;5038304;28;20029;-75
2021/09/07 07:37:05;;;;;;;14.27;8.23;;;18.10;66.40;;;;;;5039109;28;20487;-75
2021/09/07 07:39:31;;;;;;;13.40;7.93;;;18.20;66.80;;;;;;5037400;28;20034;-75
2021/09/07 07:41:57;;;;;;;13.75;7.65;;;18.30;65.80;;;;;;5038549;28;20026;-75
2021/09/07 07:44:23;;;;;;;12.57;7.00;;;18.40;67.20;;;;;;5038462;28;20079;-75
2021/09/07 07:46:50;;;;;;;11.75;7.57;;;18.70;67.10;;;;;;5037235;28;20021;-75
2021/09/07 07:49:16;;;;;;;15.40;7.82;;;18.90;67.60;;;;;;5038123;28;20468;-75
2021/09/07 07:51:42;;;;;;;10.10;6.88;;;19.10;67.30;;;;;;5037167;28;20106;-75
2021/09/07 07:54:09;;;;;;;16.10;7.90;;;19.40;68.00;;;;;;5038111;28;20025;-75
2021/09/07 07:56:36;;;;;;;13.52;7.38;;;19.70;67.50;;;;;;5037280;28;20099;-76
2021/09/07 07:59:03;;;;;;;13.85;7.78;;;20.10;66.70;;;;;;5036847;28;20034;-75
2021/09/07 08:01:29;;;;;;;13.98;7.85;;;20.40;66.70;;;;;;5038244;28;20018;-75
2021/09/07 08:03:56;;;;;;;10.57;6.68;;;20.70;66.20;;;;;;5038101;28;20448;-76
2021/09/07 08:06:22;;;;;;;11.30;7.38;;;21.00;65.10;;;;;;5036873;28;20025;-76
2021/09/07 08:08:49;;;;;;;13.10;6.88;;;21.30;65.40;;;;;;5037856;28;20025;-76
2021/09/07 08:11:16;;;;;;;11.68;7.05;;;21.70;65.60;;;;;;5027766;28;20026;-76
2021/09/07 08:13:42;;;;;;;12.23;7.32;;;22.10;65.60;;;;;;5035025;28;20053;-76
2021/09/07 08:16:08;;;;;;;13.25;7.07;;;22.50;64.40;;;;;;5037945;28;20060;-76
2021/09/07 08:18:33;;;;;;;10.77;6.38;;;23.00;64.40;;;;;;5032918;28;20526;-75
2021/09/07 08:20:59;;;;;;;8.27;5.75;;;23.40;61.60;;;;;;5037941;28;20152;-76
2021/09/07 08:23:25;;;;;;;14.48;7.00;;;23.70;62.30;;;;;;5037818;28;20113;-75
2021/09/07 08:25:51;;;;;;;10.85;5.78;;;24.20;62.10;;;;;;5037829;28;20052;-76
2021/09/07 08:28:18;;;;;;;10.90;5.95;;;24.60;61.60;;;;;;5037710;28;20084;-75
2021/09/07 08:30:44;;;;;;;10.48;6.03;;;25.20;61.00;;;;;;5037790;28;20037;-76
2021/09/07 08:33:14;;;;;;;12.75;6.10;;;25.70;58.60;;;;;;5037401;28;20053;-76
2021/09/07 08:35:41;;;;;;;11.80;6.30;;;26.10;58.20;;;;;;5036140;28;20021;-76
2021/09/07 08:38:07;;;;;;;12.10;5.82;;;26.60;57.20;;;;;;5037532;28;20060;-76
2021/09/07 08:40:33;;;;;;;9.52;6.10;;;27.00;55.90;;;;;;5037503;28;20026;-77
2021/09/07 08:43:03;;;;;;;11.93;6.30;;;27.40;55.90;;;;;;5037651;28;20029;-76
2021/09/07 08:45:29;;;;;;;10.18;5.82;;;27.80;55.20;;;;;;5036406;28;20029;-76
2021/09/07 08:47:57;;;;;;;10.50;6.43;;;28.20;52.70;;;;;;5037352;28;20479;-76
2021/09/07 08:50:24;;;;;;;9.40;5.75;;;28.60;52.60;;;;;;5037224;28;20045;-76
2021/09/07 08:53:00;;;;;;;8.27;5.63;;;29.00;51.10;;;;;;5024625;28;20021;-76
2021/09/07 08:55:28;;;;;;;10.65;5.13;;;29.40;52.10;;;;;;5037134;28;20026;-76
2021/09/07 08:57:54;;;;;;;9.45;5.15;;;29.70;53.40;;;;;;5036136;28;20399;-76
2021/09/07 09:00:27;;;;;;;12.77;5.60;;;30.10;52.40;;;;;;5035907;28;20026;-76
2021/09/07 09:02:53;;;;;;;11.02;5.60;;;30.60;49.60;;;;;;5037489;28;20064;-76
2021/09/07 09:05:27;;;;;;;11.60;5.82;;;30.90;51.20;;;;;;5036917;28;20025;-76
2021/09/07 09:07:54;;;;;;;11.40;5.68;;;31.30;48.60;;;;;;5037253;28;20430;-74
2021/09/07 09:10:22;;;;;;;13.45;6.03;;;31.70;50.00;;;;;;5034367;28;20037;-74
2021/09/07 09:12:48;;;;;;;9.15;5.22;;;32.00;47.80;;;;;;5027320;28;20030;-74
2021/09/07 09:15:16;;;;;;;9.27;4.70;;;32.30;46.20;;;;;;5037074;28;20021;-74
2021/09/07 09:17:42;;;;;;;11.30;5.43;;;32.40;47.30;;;;;;5034281;28;20026;-73
2021/09/07 09:20:17;;;;;;;8.75;5.32;;;32.70;46.30;;;;;;5034042;28;20087;-73
2021/09/07 09:22:56;;;;;;;8.18;5.07;;;32.90;47.70;;;;;;5037385;28;20029;-73
2021/09/07 09:25:22;;;;;;;10.25;5.28;;;33.20;46.10;;;;;;5024861;28;20029;-74
2021/09/07 09:27:54;;;;;;;9.57;5.20;;;33.30;45.90;;;;;;5041171;28;20064;-74
2021/09/07 09:30:28;;;;;;;10.10;5.20;;;33.40;46.10;;;;;;5041274;28;20407;-74
2021/09/07 09:32:55;;;;;;;10.85;4.35;;;33.60;46.60;;;;;;5040720;28;20073;-74
2021/09/07 09:35:21;;;;;;;11.43;4.63;;;33.90;45.90;;;;;;5040788;28;20025;-74
2021/09/07 09:38:17;;;;;;;9.48;4.55;;;34.30;42.10;;;;;;5040881;28;20457;-74
2021/09/07 09:40:44;;;;;;;10.45;4.72;;;34.60;42.50;;;;;;5040345;28;20392;-75
2021/09/07 09:43:37;;;;;;;8.15;4.13;;;34.70;42.40;;;;;;5027574;28;20026;-73
2021/09/07 09:46:26;;;;;;;11.20;4.30;;;34.80;42.20;;;;;;5040556;28;20036;-74
2021/09/07 09:49:11;;;;;;;9.20;4.45;;;34.70;40.50;;;;;;5040526;28;20108;-73
2021/09/07 09:51:39;;;;;;;8.57;4.40;;;34.40;40.30;;;;;;5040705;28;20040;-73
2021/09/07 09:54:05;;;;;;;9.27;4.15;;;34.10;39.50;;;;;;5040429;28;20042;-73
2021/09/07 09:56:32;;;;;;;10.73;4.60;;;33.80;38.50;;;;;;5040564;28;20465;-73
2021/09/07 09:58:59;;;;;;;9.77;4.65;;;33.50;39.00;;;;;;5040414;28;20026;-73
2021/09/07 10:01:26;;;;;;;6.32;4.32;;;33.20;39.40;;;;;;5039364;28;20014;-73
2021/09/07 10:03:54;;;;;;;8.98;4.40;;;33.00;40.10;;;;;;5040223;28;20028;-73
2021/09/07 10:06:20;;;;;;;7.90;4.50;;;32.90;39.70;;;;;;5039172;28;20029;-74
2021/09/07 10:08:47;;;;;;;7.97;4.22;;;32.80;41.50;;;;;;5040216;28;20060;-74
2021/09/07 10:11:21;;;;;;;7.38;4.25;;;32.90;41.90;;;;;;5030562;28;20057;-74
2021/09/07 10:13:51;;;;;;;8.50;4.47;;;33.10;41.50;;;;;;5038058;28;20064;-73
2021/09/07 10:26:39;;;;;;;7.15;4.13;;;33.60;39.50;;;;;;5040186;28;20372;-73
2021/09/07 10:29:14;;;;;;;10.20;3.80;;;33.60;40.10;;;;;;5039947;28;20038;-73
2021/09/07 10:31:44;;;;;;;9.80;4.10;;;33.60;40.70;;;;;;5039828;28;20104;-73
2021/09/07 10:34:14;;;;;;;10.63;4.32;;;33.70;40.30;;;;;;5039442;28;20143;-74
2021/09/07 10:36:57;;;;;;;7.50;4.38;;;33.90;39.20;;;;;;5024408;28;20399;-73
2021/09/07 10:39:33;;;;;;;8.38;3.97;;;34.30;39.70;;;;;;5039531;28;20080;-73
2021/09/07 10:42:02;;;;;;;11.27;5.43;;;34.70;42.20;;;;;;5039733;28;20471;-73
2021/09/07 10:44:31;;;;;;;8.38;4.47;;;35.10;40.40;;;;;;5039659;28;20040;-73
2021/09/07 10:46:57;;;;;;;8.63;4.20;;;35.50;40.90;;;;;;5039774;28;20444;-73
2021/09/07 10:49:41;;;;;;;7.88;4.00;;;35.80;39.50;;;;;;5039270;28;20024;-73
2021/09/07 10:52:14;;;;;;;10.57;4.10;;;36.10;38.40;;;;;;5038094;28;20026;-73
2021/09/07 10:54:48;;;;;;;8.77;4.20;;;36.30;38.70;;;;;;5039435;28;20025;-73
2021/09/07 10:57:32;;;;;;;8.38;4.32;;;36.50;38.30;;;;;;5039538;28;20041;-74
2021/09/07 11:00:00;;;;;;;8.93;4.07;;;36.60;39.60;;;;;;5039535;28;20084;-73
2021/09/07 11:02:34;;;;;;;8.65;4.00;;;37.00;38.10;;;;;;5039302;28;20473;-74
2021/09/07 11:05:02;;;;;;;7.78;3.85;;;37.10;37.10;;;;;;5039056;28;20336;-74
2021/09/07 11:07:42;;;;;;;6.55;4.07;;;37.20;39.20;;;;;;5039381;28;20518;-73
2021/09/07 11:10:15;;;;;;;6.70;4.35;;;37.40;37.00;;;;;;5037991;28;20088;-74
2021/09/07 11:12:50;;;;;;;7.50;3.75;;;37.60;38.50;;;;;;5028112;28;20361;-74
2021/09/07 11:15:23;;;;;;;8.75;4.20;;;37.60;36.80;;;;;;5038924;28;20028;-73
2021/09/07 11:17:58;;;;;;;9.95;4.22;;;37.70;35.70;;;;;;5035188;28;20087;-73
2021/09/07 11:20:30;;;;;;;11.80;4.28;;;37.50;35.80;;;;;;5037858;28;20108;-74
2021/09/07 11:22:57;;;;;;;6.68;3.92;;;37.50;33.70;;;;;;5038988;28;20049;-74
2021/09/07 11:25:24;;;;;;;5.93;3.88;;;37.50;35.50;;;;;;5039097;28;20038;-73
2021/09/07 11:27:58;;;;;;;7.82;3.83;;;37.40;35.80;;;;;;5037738;28;20151;-73
2021/09/07 11:30:34;;;;;;;7.07;4.00;;;37.40;36.90;;;;;;5039093;28;20060;-73
2021/09/07 11:33:07;;;;;;;7.72;3.78;;;37.50;36.20;;;;;;5038323;28;20064;-73
2021/09/07 11:35:39;;;;;;;7.57;3.60;;;37.60;35.30;;;;;;5038724;28;20117;-74
2021/09/07 11:38:08;;;;;;;12.93;4.47;;;37.60;36.50;;;;;;5038606;28;20021;-73
2021/09/07 11:40:39;;;;;;;13.13;4.30;;;37.60;35.10;;;;;;5038587;28;20469;-73
2021/09/07 11:43:05;;;;;;;7.35;3.80;;;37.70;35.10;;;;;;5025357;28;20112;-73
2021/09/07 11:45:34;;;;;;;8.02;3.85;;;37.70;35.70;;;;;;5038535;28;20065;-73
2021/09/07 11:48:02;;;;;;;14.07;4.10;;;37.70;36.70;;;;;;5038341;28;20143;-73
2021/09/07 11:50:31;;;;;;;12.13;4.50;;;37.80;35.30;;;;;;5038236;28;20031;-73
2021/09/07 11:53:00;;;;;;;16.67;4.25;;;37.80;34.20;;;;;;5038638;28;20033;-73
2021/09/07 11:55:48;;;;;;;13.15;4.20;;;37.80;35.40;;;;;;5038023;28;20031;-73
2021/09/07 11:58:35;;;;;;;12.23;4.78;;;37.90;34.80;;;;;;5038192;28;20452;-72
2021/09/07 12:01:04;;;;;;;9.82;4.25;;;37.80;34.70;;;;;;5026703;28;20079;-73
2021/09/07 12:03:50;;;;;;;8.32;4.43;;;37.70;35.80;;;;;;5037982;28;20020;-73
2021/09/07 12:06:38;;;;;;;9.73;4.35;;;37.70;35.60;;;;;;5038274;28;20025;-73
2021/09/07 12:09:16;;;;;;;8.27;4.47;;;37.70;35.80;;;;;;5025868;28;20035;-74
2021/09/07 12:11:45;;;;;;;7.35;4.50;;;37.70;35.90;;;;;;5024590;28;20385;-74
2021/09/07 12:14:13;;;;;;;9.25;3.90;;;37.70;36.00;;;;;;5038248;28;20021;-74
2021/09/07 12:16:53;;;;;;;9.52;4.30;;;37.70;36.10;;;;;;5037858;28;20033;-73
2021/09/07 12:19:30;;;;;;;8.77;4.18;;;37.70;35.20;;;;;;5032823;28;20495;-73
2021/09/07 12:22:08;;;;;;;7.45;4.65;;;37.70;36.50;;;;;;5037790;28;20026;-73
2021/09/07 12:24:34;;;;;;;7.95;4.20;;;37.70;36.50;;;;;;5037714;28;20491;-73
2021/09/07 12:27:18;;;;;;;9.32;4.60;;;37.60;36.70;;;;;;5023269;28;20050;-73
2021/09/07 12:30:05;;;;;;;7.57;4.35;;;37.70;36.00;;;;;;5037681;28;20049;-73
2021/09/07 12:32:31;;;;;;;11.15;4.82;;;37.60;35.80;;;;;;5037710;28;20132;-73
2021/09/07 12:34:57;;;;;;;9.10;4.25;;;37.50;36.20;;;;;;5037284;28;20068;-73
2021/09/07 12:37:22;;;;;;;9.40;4.13;;;37.30;35.80;;;;;;5037674;28;20104;-73
2021/09/07 12:39:49;;;;;;;10.57;4.45;;;37.10;36.30;;;;;;5037295;28;20100;-72
2021/09/07 12:42:15;;;;;;;7.40;4.20;;;36.90;36.00;;;;;;5037621;28;20022;-74
2021/09/07 12:44:41;;;;;;;6.82;3.83;;;36.70;36.00;;;;;;5037462;28;20027;-73
2021/09/07 12:47:07;;;;;;;10.30;4.13;;;36.50;35.70;;;;;;5037570;28;20017;-73
2021/09/07 12:49:32;;;;;;;6.20;4.05;;;36.30;35.90;;;;;;5036132;28;20032;-73
2021/09/07 12:51:58;;;;;;;6.70;4.00;;;36.10;36.30;;;;;;5037507;28;20018;-73
2021/09/07 12:54:24;;;;;;;9.68;4.38;;;35.90;36.20;;;;;;5037229;28;20108;-73